Time;durP1;ratioP1;P1;durP2;ratioP2;P2;SDS_P1;SDS_P2;PMS_P1;PMS_P2;Temp;Humidity;BMP_temperature;BMP_pressure;BME280_temperature;BME280_humidity;BME280_pressure;Samples;Min_cycle;Max_cycle;Signal;HPM_P1;HPM_P2
2021/12/22 19:45:33;;;;;;;33.00;19.20;;;-0.70;73.50;;;;;;5139582;27;1602551;-74
2021/12/22 19:48:00;;;;;;;32.83;18.40;;;-0.70;73.50;;;;;;5174201;27;20472;-74
2021/12/22 19:50:28;;;;;;;28.67;16.43;;;-0.80;73.90;;;;;;5174262;27;20026;-75
2021/12/22 19:52:54;;;;;;;26.87;17.00;;;-0.70;74.60;;;;;;5173953;27;20496;-74
2021/12/22 19:59:01;;;;;;;22.20;13.93;;;-0.70;76.10;;;;;;5173980;27;20464;-74
2021/12/22 20:01:27;;;;;;;20.73;14.00;;;-0.60;76.40;;;;;;5174176;27;20048;-75
2021/12/22 20:03:53;;;;;;;24.23;14.00;;;-0.60;77.00;;;;;;5174051;27;20042;-75
2021/12/22 20:06:19;;;;;;;22.17;13.47;;;-0.60;77.40;;;;;;5138336;27;20457;-75
2021/12/22 20:08:47;;;;;;;22.70;13.80;;;-0.60;77.80;;;;;;5173650;27;20496;-74
2021/12/22 20:14:55;;;;;;;22.17;13.33;;;-0.50;78.70;;;;;;5173698;27;20427;-76
2021/12/22 20:17:22;;;;;;;19.60;12.93;;;-0.40;78.60;;;;;;5174185;27;20456;-76
2021/12/22 20:19:48;;;;;;;19.57;13.10;;;-0.40;78.70;;;;;;5173419;27;20484;-76
2021/12/22 20:22:14;;;;;;;22.37;14.30;;;-0.40;78.90;;;;;;5173426;27;20468;-76
2021/12/22 20:24:40;;;;;;;21.10;13.47;;;-0.30;78.90;;;;;;5173349;27;20514;-75
2021/12/22 20:30:47;;;;;;;20.30;12.73;;;-0.30;79.10;;;;;;5173306;27;20063;-75
2021/12/22 20:33:14;;;;;;;19.57;12.53;;;-0.30;78.90;;;;;;5154588;27;20529;-76
2021/12/22 20:35:40;;;;;;;18.13;11.97;;;-0.30;78.90;;;;;;5173145;27;20477;-75
2021/12/22 20:38:07;;;;;;;19.30;12.03;;;-0.20;79.00;;;;;;5173060;27;20555;-76
2021/12/22 20:45:21;;;;;;;20.57;13.17;;;-0.20;79.00;;;;;;5067094;28;20067;-76
2021/12/22 20:47:52;;;;;;;21.13;12.23;;;-0.20;78.60;;;;;;5048470;28;20534;-76
2021/12/22 20:50:21;;;;;;;19.50;12.13;;;-0.10;78.30;;;;;;5032224;28;20045;-76
2021/12/22 20:52:47;;;;;;;18.40;12.37;;;-0.10;78.30;;;;;;5048685;28;20495;-76
2021/12/22 20:55:14;;;;;;;19.13;12.20;;;-0.10;78.30;;;;;;5044760;28;20484;-75
2021/12/22 21:01:20;;;;;;;16.23;11.37;;;-0.10;78.10;;;;;;5035221;28;20040;-77
2021/12/22 21:03:47;;;;;;;17.23;11.87;;;-0.10;77.80;;;;;;5018368;28;20547;-75
2021/12/22 21:06:13;;;;;;;18.13;11.50;;;0.00;77.90;;;;;;5034869;28;20531;-76
2021/12/22 21:08:41;;;;;;;21.93;12.77;;;0.00;77.90;;;;;;5034970;28;20488;-76
2021/12/22 21:11:10;;;;;;;19.83;12.20;;;0.00;77.70;;;;;;5036288;28;20491;-76
2021/12/22 21:13:36;;;;;;;17.03;12.07;;;0.10;77.60;;;;;;5037245;28;20498;-75
2021/12/22 21:16:03;;;;;;;16.60;11.47;;;0.10;77.50;;;;;;5037621;28;20038;-74
2021/12/22 21:18:29;;;;;;;18.20;12.30;;;0.10;77.40;;;;;;5019287;28;20624;-78
2021/12/22 21:20:56;;;;;;;16.93;11.73;;;0.20;77.40;;;;;;5093642;28;20458;-76
2021/12/22 21:23:23;;;;;;;15.63;10.87;;;0.20;77.20;;;;;;5118025;28;20466;-76
2021/12/22 21:25:49;;;;;;;18.57;12.30;;;0.20;77.10;;;;;;5117373;28;20487;-76
2021/12/22 21:31:56;;;;;;;16.90;10.90;;;0.30;76.80;;;;;;5117359;28;20159;-75
2021/12/22 21:34:23;;;;;;;15.70;10.87;;;0.20;76.30;;;;;;5117272;28;20458;-75
2021/12/22 21:36:49;;;;;;;23.00;13.53;;;0.20;76.40;;;;;;5115354;28;20541;-75
2021/12/22 21:39:16;;;;;;;22.77;11.90;;;0.30;76.30;;;;;;5117312;28;20451;-75
2021/12/22 21:41:42;;;;;;;17.77;10.73;;;0.30;76.10;;;;;;5116782;28;20512;-77
2021/12/22 21:44:08;;;;;;;16.50;11.63;;;0.30;75.90;;;;;;5132026;27;20561;-76
2021/12/22 21:46:34;;;;;;;18.27;11.30;;;0.30;75.90;;;;;;5128574;27;20488;-75
2021/12/22 21:49:00;;;;;;;16.53;11.17;;;0.30;75.80;;;;;;5137725;27;20473;-75
2021/12/22 21:51:26;;;;;;;17.83;11.70;;;0.30;75.60;;;;;;5135924;27;20565;-76
2021/12/22 21:53:52;;;;;;;18.83;11.63;;;0.30;75.60;;;;;;5137038;27;20491;-76
2021/12/22 21:56:19;;;;;;;17.40;12.40;;;0.30;75.60;;;;;;5135340;27;20494;-75
2021/12/22 21:58:46;;;;;;;15.80;10.27;;;0.30;75.50;;;;;;5136895;27;20493;-75
2021/12/22 22:01:11;;;;;;;18.97;12.17;;;0.30;75.40;;;;;;5136903;27;20469;-75
2021/12/22 22:03:38;;;;;;;18.60;12.57;;;0.30;75.30;;;;;;5137165;27;20080;-76
2021/12/22 22:06:04;;;;;;;16.07;10.83;;;0.30;75.30;;;;;;5137111;27;20438;-75
2021/12/22 22:08:30;;;;;;;16.00;11.53;;;0.30;75.20;;;;;;5136312;27;20465;-76
2021/12/22 22:10:56;;;;;;;18.93;12.77;;;0.40;75.20;;;;;;5136852;27;20548;-76
2021/12/22 22:17:03;;;;;;;17.70;11.60;;;0.30;74.80;;;;;;5136867;27;20423;-78
2021/12/22 22:19:31;;;;;;;16.77;10.93;;;0.30;74.60;;;;;;5136919;27;20493;-75
2021/12/22 22:21:57;;;;;;;15.97;11.30;;;0.30;74.60;;;;;;5137062;27;20335;-75
2021/12/22 22:24:23;;;;;;;15.03;10.87;;;0.30;74.40;;;;;;5136441;27;20484;-75
2021/12/22 22:26:50;;;;;;;18.30;11.83;;;0.30;74.40;;;;;;5136301;27;20530;-76
2021/12/22 22:29:16;;;;;;;20.37;12.13;;;0.30;74.20;;;;;;5136873;27;20043;-76
2021/12/22 22:31:43;;;;;;;16.17;11.80;;;0.20;74.10;;;;;;5136675;27;20430;-76
2021/12/22 22:34:09;;;;;;;15.70;11.23;;;0.20;74.10;;;;;;5136597;27;20429;-76
2021/12/22 22:36:35;;;;;;;15.93;11.23;;;0.20;74.10;;;;;;5136843;27;20474;-77
2021/12/22 22:39:01;;;;;;;17.10;10.43;;;0.20;74.00;;;;;;5136776;27;20499;-77
2021/12/22 22:48:25;;;;;;;16.10;11.40;;;0.20;74.00;;;;;;5115815;28;20485;-77
2021/12/22 22:50:51;;;;;;;16.67;11.63;;;0.20;73.90;;;;;;5114423;28;20047;-77
2021/12/22 22:53:17;;;;;;;17.50;12.87;;;0.10;73.80;;;;;;5115819;28;20032;-76
2021/12/22 22:55:43;;;;;;;17.67;11.67;;;0.20;73.90;;;;;;5116125;28;20044;-76
2021/12/22 23:01:51;;;;;;;18.67;12.60;;;0.20;74.10;;;;;;5115609;28;20128;-77
2021/12/22 23:04:17;;;;;;;17.57;12.13;;;0.20;74.10;;;;;;5115415;28;20489;-77
2021/12/22 23:06:43;;;;;;;17.90;11.70;;;0.20;74.10;;;;;;5115115;28;20461;-77
2021/12/22 23:09:09;;;;;;;18.50;12.00;;;0.20;74.00;;;;;;5115021;28;20484;-77
2021/12/22 23:11:37;;;;;;;20.30;11.50;;;0.20;73.90;;;;;;5115100;28;20099;-77
2021/12/22 23:17:43;;;;;;;16.90;11.67;;;0.20;73.70;;;;;;5114988;28;20038;-77
2021/12/22 23:20:10;;;;;;;18.17;11.90;;;0.20;73.70;;;;;;5114587;28;20530;-77
2021/12/22 23:22:36;;;;;;;18.73;11.93;;;0.20;73.60;;;;;;5115475;28;20450;-77
2021/12/22 23:25:04;;;;;;;16.47;11.27;;;0.20;73.60;;;;;;5114009;28;20450;-77
2021/12/22 23:27:30;;;;;;;15.37;11.37;;;0.20;73.60;;;;;;5114717;28;20470;-77
2021/12/22 23:29:56;;;;;;;16.93;11.07;;;0.20;73.70;;;;;;5113646;28;20462;-76
2021/12/22 23:32:22;;;;;;;16.87;11.00;;;0.20;73.70;;;;;;5113499;28;20081;-77
2021/12/22 23:34:50;;;;;;;19.90;11.10;;;0.30;73.70;;;;;;5113319;28;20047;-77
2021/12/22 23:37:19;;;;;;;17.37;11.17;;;0.30;73.50;;;;;;5114606;28;20531;-78
2021/12/22 23:45:06;;;;;;;20.77;11.97;;;0.30;73.40;;;;;;5114556;28;20494;-77
2021/12/22 23:50:15;;;;;;;17.95;11.93;;;0.30;73.30;;;;;;5137113;27;20473;-78
2021/12/22 23:52:41;;;;;;;16.00;11.57;;;0.30;73.10;;;;;;5137567;27;20495;-77
2021/12/22 23:55:09;;;;;;;19.93;12.53;;;0.20;73.10;;;;;;5155725;27;20465;-77
2021/12/22 23:57:35;;;;;;;17.47;11.63;;;0.20;73.00;;;;;;5137550;27;20492;-77
